Time;durP1;ratioP1;P1;durP2;ratioP2;P2;SDS_P1;SDS_P2;PMS_P1;PMS_P2;Temp;Humidity;BMP_temperature;BMP_pressure;BME280_temperature;BME280_humidity;BME280_pressure;Samples;Min_cycle;Max_cycle;Signal;HPM_P1;HPM_P2
2023/05/22 06:08:25;;;;;;;;;17.75;15.50;;;;;;;;6345741;22;45728;-73
2023/05/22 06:10:50;;;;;;;;;15.50;14.25;;;;;;;;6372251;22;45420;-72
2023/05/22 06:13:15;;;;;;;;;16.25;15.00;;;;;;;;6372461;22;45490;-72
2023/05/22 06:15:41;;;;;;;;;14.75;14.75;;;;;;;;6372906;22;46299;-73
2023/05/22 06:18:06;;;;;;;;;14.00;14.00;;;;;;;;6372026;22;45175;-72
2023/05/22 06:20:31;;;;;;;;;17.00;15.00;;;;;;;;6344524;22;45175;-72
2023/05/22 06:22:57;;;;;;;;;17.33;16.00;;;;;;;;6371488;22;45202;-72
2023/05/22 06:25:24;;;;;;;;;13.33;12.00;;;;;;;;6372737;22;45136;-72
2023/05/22 06:27:50;;;;;;;;;17.67;15.67;;;;;;;;6367569;22;45309;-73
2023/05/22 06:30:15;;;;;;;;;20.25;15.50;;;;;;;;6370526;22;45218;-73
2023/05/22 06:32:40;;;;;;;;;15.33;14.00;;;;;;;;6371583;22;45479;-73
2023/05/22 06:35:06;;;;;;;;;17.67;14.00;;;;;;;;6370441;22;46190;-73
2023/05/22 06:37:34;;;;;;;;;16.33;13.67;;;;;;;;6369412;22;45339;-73
2023/05/22 06:39:59;;;;;;;;;16.67;15.67;;;;;;;;6366521;22;45390;-73
2023/05/22 06:42:24;;;;;;;;;14.00;14.00;;;;;;;;6368592;22;45431;-73
2023/05/22 06:44:50;;;;;;;;;17.00;16.00;;;;;;;;6368563;22;45269;-73
2023/05/22 06:47:15;;;;;;;;;17.33;15.00;;;;;;;;6369215;22;45390;-73
2023/05/22 06:49:40;;;;;;;;;16.00;13.67;;;;;;;;6369607;22;45234;-72
2023/05/22 06:52:06;;;;;;;;;16.33;15.00;;;;;;;;6368968;22;45295;-73
2023/05/22 06:54:31;;;;;;;;;14.67;12.00;;;;;;;;6368959;22;46071;-73
2023/05/22 06:56:56;;;;;;;;;11.00;11.00;;;;;;;;6368628;22;45284;-73
2023/05/22 06:59:21;;;;;;;;;13.33;10.33;;;;;;;;6369036;22;45222;-73
2023/05/22 07:01:46;;;;;;;;;16.00;14.33;;;;;;;;6369037;22;45234;-72
2023/05/22 07:04:12;;;;;;;;;20.33;17.00;;;;;;;;6368609;22;46069;-73
2023/05/22 07:06:37;;;;;;;;;13.33;12.00;;;;;;;;6368046;22;45330;-73
2023/05/22 07:09:04;;;;;;;;;17.33;17.00;;;;;;;;6370600;22;45307;-73
2023/05/22 07:11:29;;;;;;;;;12.00;12.00;;;;;;;;6342168;22;46027;-72
2023/05/22 07:13:54;;;;;;;;;15.00;15.00;;;;;;;;6371016;22;46312;-73
2023/05/22 07:16:20;;;;;;;;;20.00;14.33;;;;;;;;6370191;22;45453;-74
2023/05/22 07:18:45;;;;;;;;;13.33;13.33;;;;;;;;6371098;22;45318;-72
2023/05/22 07:21:11;;;;;;;;;14.67;14.67;;;;;;;;6371923;22;45424;-71
2023/05/22 07:23:36;;;;;;;;;15.67;14.00;;;;;;;;6371175;22;45231;-73
2023/05/22 07:26:02;;;;;;;;;16.00;15.00;;;;;;;;6371768;22;45297;-71
2023/05/22 07:28:27;;;;;;;;;12.67;12.67;;;;;;;;6343534;22;45439;-71
2023/05/22 07:30:52;;;;;;;;;20.33;14.00;;;;;;;;6372174;22;45337;-71
2023/05/22 07:33:17;;;;;;;;;10.67;9.00;;;;;;;;6371823;22;45340;-71
2023/05/22 07:35:44;;;;;;;;;16.33;14.33;;;;;;;;6343638;22;45297;-71
2023/05/22 07:38:09;;;;;;;;;15.33;12.33;;;;;;;;6371748;22;45232;-71
2023/05/22 07:40:34;;;;;;;;;13.33;12.67;;;;;;;;6343285;22;45685;-71
2023/05/22 07:43:00;;;;;;;;;15.33;14.00;;;;;;;;6371866;22;45209;-71
2023/05/22 07:45:25;;;;;;;;;15.67;14.33;;;;;;;;6372377;22;45139;-72
2023/05/22 07:47:50;;;;;;;;;18.00;13.33;;;;;;;;6372200;22;45210;-73
2023/05/22 07:50:16;;;;;;;;;14.33;12.67;;;;;;;;6372636;22;45349;-73
2023/05/22 07:52:41;;;;;;;;;14.33;13.00;;;;;;;;6371433;22;46783;-73
2023/05/22 07:55:06;;;;;;;;;13.00;11.33;;;;;;;;6372442;22;45174;-73
2023/05/22 07:57:35;;;;;;;;;13.67;10.00;;;;;;;;6372880;22;45176;-71
2023/05/22 08:00:10;;;;;;;;;15.00;13.00;;;;;;;;6343535;22;45985;-71
2023/05/22 08:02:36;;;;;;;;;14.67;12.67;;;;;;;;6370975;22;47062;-71
2023/05/22 08:05:03;;;;;;;;;17.00;15.67;;;;;;;;6372149;22;45202;-72
2023/05/22 08:07:28;;;;;;;;;16.67;13.00;;;;;;;;6370752;22;45171;-71
2023/05/22 08:09:53;;;;;;;;;13.33;10.00;;;;;;;;6371337;22;45459;-72
2023/05/22 08:12:18;;;;;;;;;11.67;11.00;;;;;;;;6372000;22;46208;-72
2023/05/22 08:14:43;;;;;;;;;13.00;13.00;;;;;;;;6371925;22;45163;-72
2023/05/22 08:17:09;;;;;;;;;11.33;11.33;;;;;;;;6372171;22;45207;-72
2023/05/22 08:19:34;;;;;;;;;14.00;13.00;;;;;;;;6372375;22;45171;-72
2023/05/22 08:21:59;;;;;;;;;13.00;12.67;;;;;;;;6371498;22;46011;-72
2023/05/22 08:24:29;;;;;;;;;15.00;13.67;;;;;;;;6370952;22;45144;-72
2023/05/22 08:26:55;;;;;;;;;18.00;14.67;;;;;;;;6371542;22;45273;-73
2023/05/22 08:29:20;;;;;;;;;14.00;13.00;;;;;;;;6367226;22;45383;-71
2023/05/22 08:31:45;;;;;;;;;18.33;13.33;;;;;;;;6369877;22;45331;-72
2023/05/22 08:34:11;;;;;;;;;13.67;12.67;;;;;;;;6371298;22;45510;-72
2023/05/22 08:36:36;;;;;;;;;23.67;17.00;;;;;;;;6370570;22;45415;-72
2023/05/22 08:39:01;;;;;;;;;13.67;13.67;;;;;;;;6371443;22;45266;-72
2023/05/22 08:41:27;;;;;;;;;17.67;16.33;;;;;;;;6372433;22;46281;-71
2023/05/22 08:43:52;;;;;;;;;19.33;16.67;;;;;;;;6373114;22;45235;-72
2023/05/22 08:46:18;;;;;;;;;16.00;14.00;;;;;;;;6372835;22;45328;-72
2023/05/22 08:48:46;;;;;;;;;11.00;11.00;;;;;;;;6371510;22;45443;-72
2023/05/22 08:51:12;;;;;;;;;13.00;10.00;;;;;;;;6371447;22;46002;-72
2023/05/22 08:53:39;;;;;;;;;19.67;16.00;;;;;;;;6371094;22;45286;-72
2023/05/22 08:56:05;;;;;;;;;14.33;14.00;;;;;;;;6371317;22;45301;-73
2023/05/22 08:58:32;;;;;;;;;14.00;13.00;;;;;;;;6370640;22;45284;-73
2023/05/22 09:00:57;;;;;;;;;13.00;13.00;;;;;;;;6370608;22;45362;-74
2023/05/22 09:03:27;;;;;;;;;14.33;14.00;;;;;;;;6370795;22;45320;-73
2023/05/22 09:05:52;;;;;;;;;15.33;15.00;;;;;;;;6341874;22;45333;-73
2023/05/22 09:08:17;;;;;;;;;15.00;12.00;;;;;;;;6370021;22;45401;-72
2023/05/22 09:10:42;;;;;;;;;15.00;12.33;;;;;;;;6343181;22;46396;-73
2023/05/22 09:13:08;;;;;;;;;14.50;10.50;;;;;;;;6371774;22;45207;-73
2023/05/22 09:15:34;;;;;;;;;14.75;12.25;;;;;;;;6371380;22;45255;-73
2023/05/22 09:17:59;;;;;;;;;15.25;14.25;;;;;;;;6370067;22;45422;-72
2023/05/22 09:20:25;;;;;;;;;17.00;16.75;;;;;;;;6373028;22;45250;-73
2023/05/22 09:22:50;;;;;;;;;14.33;14.33;;;;;;;;6374673;22;45297;-73
2023/05/22 09:25:19;;;;;;;;;12.00;12.00;;;;;;;;6375003;22;45484;-72
2023/05/22 09:27:45;;;;;;;;;15.50;12.25;;;;;;;;6375425;22;45154;-73
2023/05/22 09:30:11;;;;;;;;;13.25;12.75;;;;;;;;6373436;22;45203;-71
2023/05/22 09:32:36;;;;;;;;;13.50;12.00;;;;;;;;6371859;22;45070;-72
2023/05/22 09:35:03;;;;;;;;;10.75;9.25;;;;;;;;6345078;22;45342;-71
2023/05/22 09:37:32;;;;;;;;;15.25;12.75;;;;;;;;6371433;22;45396;-72
2023/05/22 09:39:57;;;;;;;;;17.50;14.25;;;;;;;;6372238;22;46313;-72
2023/05/22 09:42:23;;;;;;;;;11.25;11.25;;;;;;;;6371721;22;45159;-73
2023/05/22 09:44:50;;;;;;;;;19.25;14.00;;;;;;;;6373059;22;45193;-72
2023/05/22 09:47:15;;;;;;;;;14.75;14.25;;;;;;;;6372293;22;45190;-71
2023/05/22 09:49:41;;;;;;;;;14.00;14.00;;;;;;;;6372523;22;45131;-71
2023/05/22 09:52:07;;;;;;;;;15.75;12.00;;;;;;;;6371422;22;45282;-73
2023/05/22 09:54:33;;;;;;;;;13.50;12.50;;;;;;;;6372593;22;45282;-73
2023/05/22 09:56:59;;;;;;;;;17.50;15.25;;;;;;;;6343231;22;46028;-73
2023/05/22 09:59:28;;;;;;;;;19.75;15.00;;;;;;;;6372601;22;45313;-73
2023/05/22 10:01:54;;;;;;;;;17.75;15.00;;;;;;;;6372261;22;45275;-72
2023/05/22 10:04:21;;;;;;;;;15.75;12.50;;;;;;;;6373458;22;45226;-74
2023/05/22 10:06:49;;;;;;;;;15.75;14.00;;;;;;;;6372161;22;45226;-71
2023/05/22 10:09:16;;;;;;;;;13.75;13.75;;;;;;;;6371489;22;45341;-71
2023/05/22 10:11:42;;;;;;;;;14.50;13.00;;;;;;;;6373241;22;45376;-74
2023/05/22 10:14:08;;;;;;;;;19.50;15.00;;;;;;;;6373037;22;45244;-71
2023/05/22 10:16:36;;;;;;;;;16.75;15.50;;;;;;;;6372177;22;45248;-73
2023/05/22 10:19:02;;;;;;;;;16.50;15.75;;;;;;;;6372425;22;46794;-74
2023/05/22 10:21:28;;;;;;;;;18.75;16.00;;;;;;;;6370782;22;45396;-75
2023/05/22 10:23:54;;;;;;;;;12.25;11.25;;;;;;;;6371753;22;45338;-71
2023/05/22 10:26:20;;;;;;;;;16.25;14.00;;;;;;;;6371291;22;45893;-72
2023/05/22 10:28:48;;;;;;;;;19.75;19.50;;;;;;;;6371683;22;45296;-72
2023/05/22 10:31:22;;;;;;;;;19.50;17.75;;;;;;;;6371862;22;45254;-71
2023/05/22 10:33:53;;;;;;;;;17.25;16.25;;;;;;;;6371884;22;45287;-72
2023/05/22 10:36:37;;;;;;;;;23.75;23.75;;;;;;;;6370866;22;45798;-72
2023/05/22 10:39:22;;;;;;;;;18.00;18.00;;;;;;;;6372112;22;45297;-72
2023/05/22 10:41:47;;;;;;;;;18.50;17.50;;;;;;;;6372108;22;45265;-72
2023/05/22 10:44:13;;;;;;;;;14.75;12.25;;;;;;;;6372692;22;45182;-74
2023/05/22 10:46:38;;;;;;;;;17.50;16.25;;;;;;;;6372753;22;45435;-71
2023/05/22 10:49:03;;;;;;;;;15.25;15.25;;;;;;;;6372632;22;45336;-74
2023/05/22 10:51:29;;;;;;;;;16.50;14.25;;;;;;;;6372252;22;45183;-74
2023/05/22 10:53:59;;;;;;;;;16.50;11.75;;;;;;;;6371594;22;45354;-75
2023/05/22 10:56:31;;;;;;;;;26.00;17.50;;;;;;;;6372990;22;45171;-74
2023/05/22 10:58:58;;;;;;;;;12.25;10.25;;;;;;;;6373193;22;45556;-74
2023/05/22 11:01:25;;;;;;;;;14.50;14.50;;;;;;;;6371894;22;45348;-74
2023/05/22 11:04:01;;;;;;;;;17.50;15.50;;;;;;;;6372628;22;45229;-75
2023/05/22 11:06:44;;;;;;;;;20.25;18.50;;;;;;;;6371658;22;45408;-74
2023/05/22 11:09:17;;;;;;;;;19.50;18.00;;;;;;;;6371465;22;45191;-75
2023/05/22 11:11:42;;;;;;;;;22.75;20.50;;;;;;;;6372039;22;45330;-74
2023/05/22 11:14:09;;;;;;;;;17.25;17.00;;;;;;;;6372728;22;45324;-73
2023/05/22 11:16:36;;;;;;;;;16.50;16.25;;;;;;;;6372099;22;45165;-73
2023/05/22 11:19:05;;;;;;;;;25.25;24.00;;;;;;;;6372272;22;46134;-74
2023/05/22 11:21:30;;;;;;;;;18.00;15.20;;;;;;;;6371577;22;45274;-74
2023/05/22 11:23:58;;;;;;;;;16.25;14.25;;;;;;;;6372734;22;45281;-73
2023/05/22 11:26:25;;;;;;;;;17.25;16.00;;;;;;;;6371602;22;45532;-74
2023/05/22 11:28:52;;;;;;;;;25.25;25.25;;;;;;;;6372411;22;45852;-74
2023/05/22 11:31:17;;;;;;;;;16.20;15.60;;;;;;;;6372329;22;45217;-73
2023/05/22 11:33:44;;;;;;;;;20.25;18.75;;;;;;;;6372709;22;45226;-74
2023/05/22 11:36:09;;;;;;;;;18.75;18.75;;;;;;;;6371567;22;45529;-74
2023/05/22 11:38:35;;;;;;;;;10.00;8.50;;;;;;;;6372071;22;45350;-74
2023/05/22 11:41:00;;;;;;;;;18.25;16.25;;;;;;;;6372299;22;45231;-72
2023/05/22 11:43:31;;;;;;;;;18.75;16.75;;;;;;;;6372784;22;45217;-72
2023/05/22 11:46:04;;;;;;;;;27.25;25.50;;;;;;;;6373135;22;45140;-74
2023/05/22 11:48:29;;;;;;;;;23.00;20.00;;;;;;;;6371928;22;46309;-74
2023/05/22 11:50:55;;;;;;;;;17.00;16.25;;;;;;;;6372083;22;45250;-72
2023/05/22 11:53:20;;;;;;;;;18.00;16.75;;;;;;;;6371698;22;45513;-74
2023/05/22 11:55:47;;;;;;;;;17.75;16.00;;;;;;;;6372418;22;45431;-74
2023/05/22 11:58:12;;;;;;;;;19.80;17.80;;;;;;;;6371799;22;45597;-74
2023/05/22 12:00:37;;;;;;;;;21.50;18.00;;;;;;;;6372271;22;45339;-73
2023/05/22 12:03:02;;;;;;;;;19.50;17.25;;;;;;;;6372576;22;45273;-72
2023/05/22 12:05:30;;;;;;;;;26.75;21.00;;;;;;;;6372022;22;45231;-74
2023/05/22 12:07:55;;;;;;;;;18.20;18.20;;;;;;;;6370844;22;46139;-74
2023/05/22 12:10:20;;;;;;;;;17.75;17.75;;;;;;;;6372137;22;45289;-72
2023/05/22 12:12:46;;;;;;;;;21.25;18.25;;;;;;;;6372391;22;45305;-72
2023/05/22 12:15:12;;;;;;;;;18.25;18.25;;;;;;;;6371292;22;45514;-75
2023/05/22 12:17:38;;;;;;;;;22.25;19.00;;;;;;;;6371988;22;46100;-75
2023/05/22 12:20:04;;;;;;;;;22.60;20.80;;;;;;;;6372164;22;45183;-75
2023/05/22 12:22:29;;;;;;;;;24.25;21.25;;;;;;;;6370733;22;45493;-74
2023/05/22 12:24:55;;;;;;;;;23.25;22.00;;;;;;;;6371298;22;45464;-74
2023/05/22 12:27:20;;;;;;;;;19.00;19.00;;;;;;;;6372113;22;46001;-71
2023/05/22 12:29:45;;;;;;;;;19.50;17.25;;;;;;;;6373590;22;45171;-73
2023/05/22 12:32:11;;;;;;;;;22.00;19.25;;;;;;;;6375272;22;45210;-72
2023/05/22 12:34:46;;;;;;;;;21.25;19.75;;;;;;;;6372110;22;45197;-74
2023/05/22 12:37:18;;;;;;;;;25.25;20.25;;;;;;;;6370803;22;45265;-75
2023/05/22 12:39:52;;;;;;;;;30.25;28.75;;;;;;;;6371944;22;45253;-75
2023/05/22 12:42:17;;;;;;;;;26.50;24.25;;;;;;;;6371453;22;45735;-75
2023/05/22 12:44:44;;;;;;;;;18.00;17.25;;;;;;;;6371954;22;45413;-75
2023/05/22 12:47:09;;;;;;;;;20.25;20.25;;;;;;;;6367483;22;46064;-75
2023/05/22 12:49:34;;;;;;;;;26.50;22.75;;;;;;;;6371622;22;45206;-74
2023/05/22 12:51:59;;;;;;;;;22.50;18.75;;;;;;;;6334772;22;45286;-75
2023/05/22 12:54:25;;;;;;;;;17.75;17.75;;;;;;;;6366591;22;45479;-74
2023/05/22 12:56:50;;;;;;;;;19.25;17.50;;;;;;;;6372223;22;45507;-73
2023/05/22 12:59:15;;;;;;;;;22.75;20.25;;;;;;;;6373029;22;45201;-72
2023/05/22 13:01:40;;;;;;;;;23.75;20.00;;;;;;;;6372766;22;45162;-74
2023/05/22 13:04:05;;;;;;;;;15.50;14.75;;;;;;;;6372810;22;45182;-72
2023/05/22 13:06:31;;;;;;;;;19.00;18.00;;;;;;;;6372415;22;45293;-72
2023/05/22 13:08:56;;;;;;;;;17.75;15.25;;;;;;;;6372248;22;45210;-72
2023/05/22 13:11:22;;;;;;;;;22.75;21.00;;;;;;;;6344488;22;45182;-72
2023/05/22 13:13:47;;;;;;;;;21.25;19.50;;;;;;;;6373141;22;45430;-73
2023/05/22 13:16:12;;;;;;;;;17.75;17.50;;;;;;;;6373352;22;46216;-73
2023/05/22 13:18:37;;;;;;;;;20.00;18.25;;;;;;;;6373856;22;45186;-72
2023/05/22 13:21:03;;;;;;;;;17.50;14.75;;;;;;;;6374686;22;45208;-72
2023/05/22 13:23:28;;;;;;;;;19.25;16.50;;;;;;;;6372335;22;46052;-73
2023/05/22 13:25:53;;;;;;;;;18.50;18.25;;;;;;;;6373011;22;45786;-73
2023/05/22 13:28:18;;;;;;;;;20.50;16.00;;;;;;;;6344023;22;45247;-74
2023/05/22 13:30:43;;;;;;;;;16.50;15.50;;;;;;;;6373489;22;45092;-74
2023/05/22 13:33:09;;;;;;;;;17.75;15.00;;;;;;;;6372526;22;45465;-73
2023/05/22 13:35:34;;;;;;;;;21.75;17.25;;;;;;;;6372735;22;46713;-73
2023/05/22 13:38:00;;;;;;;;;19.25;19.25;;;;;;;;6371118;22;45242;-73
2023/05/22 13:40:25;;;;;;;;;15.25;15.25;;;;;;;;6373416;22;45455;-73
2023/05/22 13:42:51;;;;;;;;;17.00;14.25;;;;;;;;6371495;22;45239;-73
2023/05/22 13:45:17;;;;;;;;;17.50;16.00;;;;;;;;6372855;22;45277;-73
2023/05/22 13:47:42;;;;;;;;;20.25;16.75;;;;;;;;6343980;22;45287;-73
2023/05/22 13:50:07;;;;;;;;;20.25;18.25;;;;;;;;6372824;22;45296;-72
2023/05/22 13:52:33;;;;;;;;;21.25;19.00;;;;;;;;6371061;22;45467;-72
2023/05/22 13:54:58;;;;;;;;;17.25;17.00;;;;;;;;6372823;22;45264;-74
2023/05/22 13:57:24;;;;;;;;;20.00;17.75;;;;;;;;6372356;22;45271;-73
2023/05/22 13:59:49;;;;;;;;;18.00;16.00;;;;;;;;6373200;22;45160;-73
2023/05/22 14:02:14;;;;;;;;;17.75;17.75;;;;;;;;6344428;22;45231;-73
2023/05/22 14:04:39;;;;;;;;;15.00;14.50;;;;;;;;6345469;22;46187;-73
2023/05/22 14:07:05;;;;;;;;;16.00;16.00;;;;;;;;6372136;22;45147;-72
2023/05/22 14:09:30;;;;;;;;;16.25;15.00;;;;;;;;6371824;22;45222;-72
2023/05/22 14:11:56;;;;;;;;;18.00;16.00;;;;;;;;6372262;22;45155;-72
2023/05/22 14:14:22;;;;;;;;;20.75;19.50;;;;;;;;6372613;22;45983;-74
2023/05/22 14:16:50;;;;;;;;;19.50;18.75;;;;;;;;6371640;22;45201;-73
2023/05/22 14:19:16;;;;;;;;;20.75;18.25;;;;;;;;6372971;22;45231;-73
2023/05/22 14:21:41;;;;;;;;;19.50;17.00;;;;;;;;6371545;22;45334;-74
2023/05/22 14:24:06;;;;;;;;;17.50;17.50;;;;;;;;6372288;22;47145;-73
2023/05/22 14:26:31;;;;;;;;;20.75;19.25;;;;;;;;6372819;22;45178;-74
2023/05/22 14:28:57;;;;;;;;;18.25;17.50;;;;;;;;6372994;22;45239;-74
2023/05/22 14:31:22;;;;;;;;;19.25;19.25;;;;;;;;6371108;22;45266;-75
2023/05/22 14:33:47;;;;;;;;;19.50;17.50;;;;;;;;6372566;22;45412;-74
2023/05/22 14:36:12;;;;;;;;;17.25;17.25;;;;;;;;6372103;22;45273;-73
2023/05/22 14:38:37;;;;;;;;;19.75;18.75;;;;;;;;6372742;22;45248;-74
2023/05/22 14:41:03;;;;;;;;;21.50;20.25;;;;;;;;6371116;22;45315;-74
2023/05/22 14:43:28;;;;;;;;;19.25;16.75;;;;;;;;6371667;22;45765;-73
2023/05/22 14:45:54;;;;;;;;;20.25;19.00;;;;;;;;6371766;22;45235;-75
2023/05/22 14:48:24;;;;;;;;;17.75;17.75;;;;;;;;6344181;22;45218;-72
2023/05/22 14:50:50;;;;;;;;;20.00;15.00;;;;;;;;6372533;22;45410;-73
2023/05/22 14:53:15;;;;;;;;;18.50;17.75;;;;;;;;6371819;22;46165;-73
2023/05/22 14:55:40;;;;;;;;;19.00;18.00;;;;;;;;6371457;22;45297;-73
2023/05/22 14:58:05;;;;;;;;;20.25;18.25;;;;;;;;6371803;22;45272;-73
2023/05/22 15:00:31;;;;;;;;;18.00;17.25;;;;;;;;6372291;22;45266;-74
2023/05/22 15:02:56;;;;;;;;;19.25;17.00;;;;;;;;6372045;22;45546;-73
2023/05/22 15:05:21;;;;;;;;;20.00;17.00;;;;;;;;6372671;22;45218;-73
2023/05/22 15:07:46;;;;;;;;;22.00;17.75;;;;;;;;6370066;22;45273;-74
2023/05/22 15:10:12;;;;;;;;;20.75;18.75;;;;;;;;6372688;22;45230;-73
2023/05/22 15:12:37;;;;;;;;;21.00;19.00;;;;;;;;6371937;22;45820;-73
2023/05/22 15:15:02;;;;;;;;;18.25;17.25;;;;;;;;6372068;22;45273;-73
2023/05/22 15:17:27;;;;;;;;;19.75;17.25;;;;;;;;6372299;22;45344;-73
2023/05/22 15:19:53;;;;;;;;;19.75;18.00;;;;;;;;6371851;22;45359;-73
2023/05/22 15:22:18;;;;;;;;;23.00;19.00;;;;;;;;6371691;22;46042;-73
2023/05/22 15:24:45;;;;;;;;;17.00;16.75;;;;;;;;6372421;22;45339;-73
2023/05/22 15:27:11;;;;;;;;;17.75;17.00;;;;;;;;6371973;22;45141;-73
2023/05/22 15:29:36;;;;;;;;;21.75;18.75;;;;;;;;6373470;22;45187;-74
2023/05/22 15:32:01;;;;;;;;;21.00;19.50;;;;;;;;6374268;22;46052;-74
2023/05/22 15:34:26;;;;;;;;;16.50;14.75;;;;;;;;6374944;22;45206;-74
2023/05/22 15:36:51;;;;;;;;;14.75;14.25;;;;;;;;6374518;22;45527;-74
2023/05/22 15:39:17;;;;;;;;;15.75;15.25;;;;;;;;6374317;22;45311;-74
2023/05/22 15:41:42;;;;;;;;;18.75;16.75;;;;;;;;6372106;22;45133;-75
2023/05/22 15:44:08;;;;;;;;;19.00;17.50;;;;;;;;6371555;22;45286;-74
2023/05/22 15:46:33;;;;;;;;;15.00;15.00;;;;;;;;6372265;22;45190;-74
2023/05/22 15:48:59;;;;;;;;;23.00;20.00;;;;;;;;6372265;22;45189;-75
2023/05/22 15:51:24;;;;;;;;;9.25;9.25;;;;;;;;6370683;22;45386;-74
2023/05/22 15:53:49;;;;;;;;;16.75;16.75;;;;;;;;6342285;22;45475;-75
2023/05/22 15:56:14;;;;;;;;;20.50;18.25;;;;;;;;6372309;22;45280;-74
2023/05/22 15:58:40;;;;;;;;;20.25;17.50;;;;;;;;6372236;22;45273;-74
2023/05/22 16:01:06;;;;;;;;;20.25;18.25;;;;;;;;6372374;22;46368;-74
2023/05/22 16:03:31;;;;;;;;;13.75;13.50;;;;;;;;6372175;22;45222;-74
2023/05/22 16:05:57;;;;;;;;;20.25;17.00;;;;;;;;6372254;22;45182;-73
2023/05/22 16:08:22;;;;;;;;;20.00;17.50;;;;;;;;6337367;22;45471;-75
2023/05/22 16:10:47;;;;;;;;;19.00;17.50;;;;;;;;6340513;22;45265;-74
2023/05/22 16:13:12;;;;;;;;;19.75;16.75;;;;;;;;6341159;22;45257;-74
2023/05/22 16:15:38;;;;;;;;;16.50;15.75;;;;;;;;6343169;22;44659;-75
2023/05/22 16:18:06;;;;;;;;;20.75;19.25;;;;;;;;6341178;22;45857;-75
2023/05/22 16:20:32;;;;;;;;;20.75;18.75;;;;;;;;6341944;22;45560;-75
2023/05/22 16:22:57;;;;;;;;;18.75;18.75;;;;;;;;6340393;22;45222;-74
2023/05/22 16:25:22;;;;;;;;;17.50;17.00;;;;;;;;6340363;22;45395;-74
2023/05/22 16:27:48;;;;;;;;;17.25;17.25;;;;;;;;6340001;22;45226;-74
2023/05/22 16:30:15;;;;;;;;;22.00;20.67;;;;;;;;6338746;22;46059;-74
2023/05/22 16:32:40;;;;;;;;;22.67;21.00;;;;;;;;6339935;22;45349;-75
2023/05/22 16:35:05;;;;;;;;;19.67;17.33;;;;;;;;6340499;22;45623;-74
2023/05/22 16:37:31;;;;;;;;;20.67;19.33;;;;;;;;6339101;22;45431;-75
2023/05/22 16:39:57;;;;;;;;;21.67;21.67;;;;;;;;6337447;22;46946;-74
2023/05/22 16:42:22;;;;;;;;;18.00;16.33;;;;;;;;6339671;22;45213;-74
2023/05/22 16:44:47;;;;;;;;;23.33;20.67;;;;;;;;6340527;22;45237;-75
2023/05/22 16:47:12;;;;;;;;;20.00;19.00;;;;;;;;6339967;22;45171;-75
2023/05/22 16:49:38;;;;;;;;;26.67;21.67;;;;;;;;6339561;22;46141;-75
2023/05/22 16:52:03;;;;;;;;;20.00;19.00;;;;;;;;6339328;22;45278;-75
2023/05/22 16:54:28;;;;;;;;;22.33;20.00;;;;;;;;6340518;22;45429;-75
2023/05/22 16:56:54;;;;;;;;;25.33;21.33;;;;;;;;6340308;22;45183;-76
2023/05/22 16:59:19;;;;;;;;;14.67;13.00;;;;;;;;6338979;22;45361;-75
2023/05/22 17:01:45;;;;;;;;;26.00;21.67;;;;;;;;6342436;22;45456;-74
2023/05/22 17:04:13;;;;;;;;;21.67;21.67;;;;;;;;6341194;22;45259;-74
2023/05/22 17:06:38;;;;;;;;;23.00;21.00;;;;;;;;6341953;22;45347;-75
2023/05/22 17:09:03;;;;;;;;;21.33;19.67;;;;;;;;6371605;22;45465;-74
2023/05/22 17:11:29;;;;;;;;;23.00;20.67;;;;;;;;6371875;22;45145;-75
2023/05/22 17:13:54;;;;;;;;;24.00;20.33;;;;;;;;6342652;22;45276;-75
2023/05/22 17:16:19;;;;;;;;;18.67;18.00;;;;;;;;6371513;22;45140;-75
2023/05/22 17:18:45;;;;;;;;;21.33;20.33;;;;;;;;6371161;22;45901;-75
2023/05/22 17:21:10;;;;;;;;;22.67;19.67;;;;;;;;6371088;22;45270;-74
2023/05/22 17:23:36;;;;;;;;;21.67;20.67;;;;;;;;6370723;22;45271;-75
2023/05/22 17:26:04;;;;;;;;;26.33;24.00;;;;;;;;6371334;22;45395;-76
2023/05/22 17:28:30;;;;;;;;;25.33;22.33;;;;;;;;6342586;22;46110;-75
2023/05/22 17:30:55;;;;;;;;;19.67;19.00;;;;;;;;6370256;22;45131;-76
2023/05/22 17:33:20;;;;;;;;;25.67;23.67;;;;;;;;6370255;22;45210;-74
2023/05/22 17:35:46;;;;;;;;;25.33;22.33;;;;;;;;6370760;22;45446;-74
2023/05/22 17:38:11;;;;;;;;;23.67;23.67;;;;;;;;6370451;22;45315;-74
2023/05/22 17:40:36;;;;;;;;;25.67;22.33;;;;;;;;6370309;22;45198;-74
2023/05/22 17:43:02;;;;;;;;;24.33;21.67;;;;;;;;6371778;22;45255;-74
2023/05/22 17:45:27;;;;;;;;;22.00;21.00;;;;;;;;6373048;22;45147;-73
2023/05/22 17:47:52;;;;;;;;;21.00;20.67;;;;;;;;6372840;22;45477;-74
2023/05/22 17:50:17;;;;;;;;;26.00;21.67;;;;;;;;6374900;22;45194;-75
2023/05/22 17:52:43;;;;;;;;;24.67;18.67;;;;;;;;6375178;22;45089;-74
2023/05/22 17:55:08;;;;;;;;;21.00;17.67;;;;;;;;6374535;22;45470;-74
2023/05/22 17:57:34;;;;;;;;;24.33;24.33;;;;;;;;6343633;22;47698;-76
2023/05/22 17:59:59;;;;;;;;;23.67;21.00;;;;;;;;6371757;22;45193;-72
2023/05/22 18:02:25;;;;;;;;;21.00;21.00;;;;;;;;6372340;22;45230;-72
2023/05/22 18:04:50;;;;;;;;;20.00;20.00;;;;;;;;6371496;22;45367;-73
2023/05/22 18:07:16;;;;;;;;;27.33;23.00;;;;;;;;6371462;22;46010;-73
2023/05/22 18:09:41;;;;;;;;;24.00;22.00;;;;;;;;6372537;22;45253;-75
2023/05/22 18:12:07;;;;;;;;;23.33;21.33;;;;;;;;6372746;22;45475;-74
2023/05/22 18:14:32;;;;;;;;;20.67;20.67;;;;;;;;6371361;22;45453;-73
2023/05/22 18:16:57;;;;;;;;;25.00;20.67;;;;;;;;6372510;22;45245;-74
2023/05/22 18:19:22;;;;;;;;;22.33;21.00;;;;;;;;6373200;22;45247;-75
2023/05/22 18:21:48;;;;;;;;;27.00;23.67;;;;;;;;6372381;22;45209;-75
2023/05/22 18:24:13;;;;;;;;;27.00;27.00;;;;;;;;6373085;22;45276;-74
2023/05/22 18:26:38;;;;;;;;;24.67;22.00;;;;;;;;6372758;22;45970;-74
2023/05/22 18:29:04;;;;;;;;;23.33;23.00;;;;;;;;6373161;22;45282;-74
2023/05/22 18:31:29;;;;;;;;;26.33;21.67;;;;;;;;6373083;22;45262;-73
2023/05/22 18:33:54;;;;;;;;;26.33;24.33;;;;;;;;6373178;22;45254;-74
2023/05/22 18:36:20;;;;;;;;;26.00;26.00;;;;;;;;6373147;22;46156;-74
2023/05/22 18:38:45;;;;;;;;;27.00;24.67;;;;;;;;6373397;22;45235;-73
2023/05/22 18:41:10;;;;;;;;;24.00;22.33;;;;;;;;6373420;22;45488;-73
2023/05/22 18:43:36;;;;;;;;;26.00;21.67;;;;;;;;6372664;22;45357;-76
2023/05/22 18:46:01;;;;;;;;;25.67;21.67;;;;;;;;6372786;22;45904;-75
2023/05/22 18:48:27;;;;;;;;;27.33;22.00;;;;;;;;6372574;22;45231;-77
2023/05/22 18:50:52;;;;;;;;;28.33;23.33;;;;;;;;6372795;22;45168;-78
2023/05/22 18:53:17;;;;;;;;;26.00;24.67;;;;;;;;6372254;22;45455;-77
2023/05/22 18:55:43;;;;;;;;;25.33;22.67;;;;;;;;6372966;22;45422;-77
2023/05/22 18:58:08;;;;;;;;;26.67;24.00;;;;;;;;6372558;22;45203;-76
2023/05/22 19:00:33;;;;;;;;;23.33;22.00;;;;;;;;6372929;22;45211;-76
2023/05/22 19:02:59;;;;;;;;;21.33;20.67;;;;;;;;6372680;22;45530;-76
2023/05/22 19:05:25;;;;;;;;;21.67;19.33;;;;;;;;6372680;22;45777;-76
2023/05/22 19:07:50;;;;;;;;;22.67;19.00;;;;;;;;6343144;22;45702;-75
2023/05/22 19:10:15;;;;;;;;;22.33;21.33;;;;;;;;6372414;22;45410;-76
2023/05/22 19:12:40;;;;;;;;;24.33;23.67;;;;;;;;6372728;22;45246;-75
2023/05/22 19:15:06;;;;;;;;;25.00;21.00;;;;;;;;6373476;22;45273;-75
2023/05/22 19:17:31;;;;;;;;;20.00;20.00;;;;;;;;6371390;22;45323;-75
2023/05/22 19:19:57;;;;;;;;;20.00;20.00;;;;;;;;6375179;22;45242;-76
2023/05/22 19:22:23;;;;;;;;;26.00;23.00;;;;;;;;6375027;22;45263;-75
2023/05/22 19:24:48;;;;;;;;;21.33;20.33;;;;;;;;6345709;22;45303;-75
2023/05/22 19:27:13;;;;;;;;;22.00;21.67;;;;;;;;6371965;22;45218;-75
2023/05/22 19:29:38;;;;;;;;;25.00;23.00;;;;;;;;6372935;22;45255;-74
2023/05/22 19:32:03;;;;;;;;;27.67;21.67;;;;;;;;6372069;22;45264;-74
2023/05/22 19:34:29;;;;;;;;;24.33;21.33;;;;;;;;6372581;22;46198;-75
2023/05/22 19:36:56;;;;;;;;;32.33;25.67;;;;;;;;6371627;22;45359;-74
2023/05/22 19:39:22;;;;;;;;;26.67;24.33;;;;;;;;6372728;22;45204;-74
2023/05/22 19:41:49;;;;;;;;;26.00;22.67;;;;;;;;6371265;22;45400;-74
2023/05/22 19:44:15;;;;;;;;;29.67;25.33;;;;;;;;6371625;22;45220;-74
2023/05/22 19:46:41;;;;;;;;;21.67;21.67;;;;;;;;6372410;22;45216;-75
2023/05/22 19:49:06;;;;;;;;;24.00;23.00;;;;;;;;6372260;22;45271;-74
2023/05/22 19:51:32;;;;;;;;;25.33;21.67;;;;;;;;6342546;22;45495;-74
2023/05/22 19:53:57;;;;;;;;;29.00;22.33;;;;;;;;6372308;22;45565;-75
2023/05/22 19:56:22;;;;;;;;;31.00;24.33;;;;;;;;6371786;22;45238;-75
2023/05/22 19:58:47;;;;;;;;;23.00;21.00;;;;;;;;6372818;22;45211;-74
2023/05/22 20:01:12;;;;;;;;;26.67;23.00;;;;;;;;6343706;22;45858;-74
2023/05/22 20:03:38;;;;;;;;;20.67;18.00;;;;;;;;6372817;22;46450;-75
2023/05/22 20:06:04;;;;;;;;;21.00;21.00;;;;;;;;6374870;22;45238;-75
2023/05/22 20:08:29;;;;;;;;;24.33;21.33;;;;;;;;6374892;22;45407;-75
2023/05/22 20:10:54;;;;;;;;;20.33;20.33;;;;;;;;6374227;22;45472;-74
2023/05/22 20:13:19;;;;;;;;;22.67;20.67;;;;;;;;6371935;22;45963;-74
2023/05/22 20:15:46;;;;;;;;;24.67;22.67;;;;;;;;6343653;22;45262;-75